createdAt,value
2022-10-26T00:01:22.758Z,18.80
2022-10-26T00:03:50.964Z,18.83
2022-10-26T00:06:21.385Z,18.70
2022-10-26T00:08:51.326Z,19.93
2022-10-26T00:11:20.698Z,19.27
2022-10-26T00:13:49.977Z,20.80
2022-10-26T00:16:21.087Z,20.33
2022-10-26T00:18:49.797Z,20.57
2022-10-26T00:21:19.186Z,19.53
2022-10-26T00:23:47.559Z,19.50
2022-10-26T00:26:17.028Z,20.97
2022-10-26T00:28:45.213Z,20.73
2022-10-26T00:31:16.467Z,19.97
2022-10-26T00:33:44.768Z,19.77
2022-10-26T00:36:16.678Z,18.80
2022-10-26T00:38:49.686Z,19.70
2022-10-26T00:41:22.089Z,19.70
2022-10-26T00:43:50.750Z,20.43
2022-10-26T00:46:23.344Z,20.03
2022-10-26T00:48:58.035Z,21.13
2022-10-26T00:51:32.789Z,20.60
2022-10-26T00:54:04.755Z,20.03
2022-10-26T00:56:36.136Z,19.87
2022-10-26T00:59:08.038Z,20.57
2022-10-26T01:01:39.626Z,20.20
2022-10-26T01:04:08.373Z,19.73
2022-10-26T01:06:38.833Z,20.57
2022-10-26T01:09:07.338Z,20.53
2022-10-26T01:11:36.776Z,20.07
2022-10-26T01:14:09.127Z,20.57
2022-10-26T01:16:57.872Z,20.10
2022-10-26T01:20:15.011Z,19.27
2022-10-26T01:22:50.878Z,19.63
2022-10-26T01:25:48.891Z,19.90
2022-10-26T01:28:34.962Z,20.43
2022-10-26T01:31:08.294Z,20.47
2022-10-26T01:33:41.011Z,20.10
2022-10-26T01:36:14.671Z,20.87
2022-10-26T01:38:53.659Z,20.20
2022-10-26T01:41:29.251Z,21.30
2022-10-26T01:44:02.324Z,21.93
2022-10-26T01:46:38.402Z,21.97
2022-10-26T01:49:11.786Z,22.23
2022-10-26T01:51:42.907Z,21.63
2022-10-26T01:54:12.319Z,22.23
2022-10-26T01:56:43.010Z,21.27
2022-10-26T01:59:37.122Z,21.53
2022-10-26T02:02:40.229Z,21.73
2022-10-26T02:05:38.724Z,21.40
2022-10-26T02:08:22.311Z,20.63
2022-10-26T02:11:03.701Z,20.57
2022-10-26T02:13:41.898Z,21.00
2022-10-26T02:16:23.142Z,22.23
2022-10-26T02:19:02.202Z,22.63
2022-10-26T02:21:37.263Z,22.27
2022-10-26T02:24:09.577Z,23.10
2022-10-26T02:26:38.511Z,22.43
2022-10-26T02:29:11.219Z,21.57
2022-10-26T02:31:41.621Z,22.27
2022-10-26T02:34:14.821Z,23.67
2022-10-26T02:36:46.103Z,23.03
2022-10-26T02:39:17.909Z,23.47
2022-10-26T02:41:47.219Z,22.93
2022-10-26T02:44:21.113Z,23.63
2022-10-26T02:46:52.289Z,23.53
2022-10-26T02:49:22.701Z,23.67
2022-10-26T02:51:55.269Z,23.97
2022-10-26T02:54:32.969Z,22.77
2022-10-26T02:57:05.780Z,24.73
2022-10-26T02:59:38.254Z,25.93
2022-10-26T03:02:07.029Z,24.37
2022-10-26T03:04:36.954Z,24.17
2022-10-26T03:07:05.050Z,25.27
2022-10-26T03:09:33.201Z,25.27
2022-10-26T03:12:01.300Z,26.70
2022-10-26T03:14:29.394Z,25.40
2022-10-26T03:16:57.478Z,25.87
2022-10-26T03:19:25.889Z,27.93
2022-10-26T03:21:55.309Z,26.33
2022-10-26T03:24:23.406Z,27.03
2022-10-26T03:26:51.499Z,26.23
2022-10-26T03:29:19.610Z,27.80
2022-10-26T03:31:48.846Z,27.57
2022-10-26T03:34:16.894Z,26.83
2022-10-26T03:40:58.060Z,25.53
2022-10-26T03:43:26.354Z,27.67
2022-10-26T03:45:54.679Z,27.40
2022-10-26T03:48:22.997Z,26.50
2022-10-26T03:50:51.130Z,26.87
2022-10-26T03:53:19.379Z,27.07
2022-10-26T03:55:47.613Z,26.93
2022-10-26T03:58:17.610Z,27.10
2022-10-26T04:00:45.887Z,27.33
2022-10-26T04:03:14.047Z,26.80
2022-10-26T04:05:42.208Z,29.67
2022-10-26T04:08:10.593Z,28.57
2022-10-26T04:10:39.095Z,27.27
2022-10-26T04:13:07.214Z,27.33
2022-10-26T04:15:36.738Z,25.63
2022-10-26T04:18:05.846Z,26.53
2022-10-26T04:20:36.640Z,27.03
2022-10-26T04:23:07.490Z,27.10
2022-10-26T04:25:36.091Z,27.47
2022-10-26T04:28:06.373Z,25.70
2022-10-26T04:30:37.498Z,26.80
2022-10-26T04:33:06.826Z,28.00
2022-10-26T04:35:35.130Z,26.87
2022-10-26T04:38:06.370Z,26.83
2022-10-26T04:40:36.421Z,26.33
2022-10-26T04:43:04.585Z,27.13
2022-10-26T04:45:32.996Z,26.43
2022-10-26T04:48:05.795Z,24.57
2022-10-26T04:50:34.876Z,25.47
2022-10-26T04:53:03.352Z,26.33
2022-10-26T04:55:31.549Z,25.97
2022-10-26T04:58:01.426Z,25.97
2022-10-26T05:00:32.741Z,24.67
2022-10-26T05:03:05.124Z,25.17
2022-10-26T05:05:35.801Z,26.07
2022-10-26T05:08:04.554Z,25.77
2022-10-26T05:10:33.021Z,25.80
2022-10-26T05:13:02.257Z,27.70
2022-10-26T05:15:30.845Z,26.40
2022-10-26T05:18:02.828Z,26.63
2022-10-26T05:20:33.964Z,25.93
2022-10-26T05:23:04.839Z,25.27
2022-10-26T05:25:35.831Z,26.23
2022-10-26T05:28:06.249Z,25.23
2022-10-26T05:30:34.663Z,26.17
2022-10-26T05:33:04.561Z,25.27
2022-10-26T05:35:33.390Z,25.97
2022-10-26T05:38:02.054Z,24.33
2022-10-26T05:40:30.290Z,25.20
2022-10-26T05:43:02.872Z,24.60
2022-10-26T05:45:31.740Z,25.10
2022-10-26T05:48:02.691Z,24.23
2022-10-26T05:50:32.835Z,24.77
2022-10-26T05:53:01.270Z,24.97
2022-10-26T05:55:30.424Z,24.97
2022-10-26T05:57:59.408Z,22.87
2022-10-26T06:00:30.454Z,24.03
2022-10-26T06:03:15.046Z,24.13
2022-10-26T06:05:53.866Z,21.90
2022-10-26T06:08:24.580Z,22.87
2022-10-26T06:10:54.452Z,22.90
2022-10-26T06:13:23.919Z,23.30
2022-10-26T06:16:08.770Z,22.27
2022-10-26T06:18:47.930Z,22.83
2022-10-26T06:21:36.078Z,21.83
2022-10-26T06:24:10.548Z,22.20
2022-10-26T06:26:48.170Z,21.53
2022-10-26T06:29:29.353Z,21.90
2022-10-26T06:31:59.033Z,21.23
2022-10-26T06:34:31.708Z,19.50
2022-10-26T06:37:02.989Z,20.87
2022-10-26T06:39:37.374Z,21.10
2022-10-26T06:42:08.821Z,21.03
2022-10-26T06:44:38.450Z,20.77
2022-10-26T06:47:11.306Z,20.30
2022-10-26T06:49:44.103Z,20.50
2022-10-26T06:52:18.926Z,21.20
2022-10-26T06:54:52.718Z,19.77
2022-10-26T06:57:23.929Z,20.03
2022-10-26T06:59:55.916Z,19.40
2022-10-26T07:02:25.140Z,18.77
2022-10-26T07:04:54.435Z,18.67
2022-10-26T07:07:27.177Z,17.63
2022-10-26T07:09:55.433Z,17.30
2022-10-26T07:12:23.819Z,17.63
2022-10-26T07:14:52.004Z,16.60
2022-10-26T07:17:20.149Z,17.20
2022-10-26T07:19:51.692Z,16.37
2022-10-26T07:22:20.000Z,16.53
2022-10-26T07:24:51.415Z,16.97
2022-10-26T07:27:20.629Z,16.03
2022-10-26T07:29:48.869Z,15.03
2022-10-26T07:32:17.091Z,14.47
2022-10-26T07:34:45.343Z,14.80
2022-10-26T07:37:13.836Z,15.10
2022-10-26T07:39:42.039Z,15.10
2022-10-26T07:42:11.614Z,14.23
2022-10-26T07:44:39.849Z,14.40
2022-10-26T07:47:08.025Z,14.47
2022-10-26T07:49:36.212Z,13.40
2022-10-26T07:52:04.703Z,14.67
2022-10-26T07:54:33.315Z,13.20
2022-10-26T07:57:02.232Z,12.57
2022-10-26T07:59:32.077Z,12.47
2022-10-26T08:02:00.451Z,13.03
2022-10-26T08:04:28.788Z,12.50
2022-10-26T08:06:57.013Z,11.67
2022-10-26T08:09:25.355Z,11.63
2022-10-26T08:11:53.581Z,11.27
2022-10-26T08:14:22.259Z,10.47
2022-10-26T08:16:52.656Z,10.13
2022-10-26T08:19:21.306Z,10.00
2022-10-26T08:21:49.650Z,9.57
2022-10-26T08:24:17.763Z,10.03
2022-10-26T08:26:45.921Z,9.80
2022-10-26T08:29:14.173Z,9.43
2022-10-26T08:31:42.448Z,9.33
2022-10-26T08:34:12.150Z,8.97
2022-10-26T08:36:40.308Z,8.70
2022-10-26T08:39:10.866Z,9.10
2022-10-26T08:41:43.731Z,8.63
2022-10-26T08:44:26.104Z,8.67
2022-10-26T08:46:59.891Z,7.70
2022-10-26T08:49:39.702Z,8.20
2022-10-26T08:52:12.710Z,8.33
2022-10-26T08:54:45.579Z,7.80
2022-10-26T08:57:22.140Z,7.87
2022-10-26T08:59:57.663Z,7.80
2022-10-26T09:02:26.167Z,7.77
2022-10-26T09:04:59.377Z,7.27
2022-10-26T09:07:52.895Z,7.37
2022-10-26T09:10:37.329Z,6.97
2022-10-26T09:13:17.226Z,7.23
2022-10-26T09:16:04.475Z,6.00
2022-10-26T09:21:42.942Z,6.40
2022-10-26T09:24:16.469Z,6.10
2022-10-26T09:26:55.718Z,5.63
2022-10-26T09:29:29.976Z,5.80
2022-10-26T09:32:02.835Z,6.27
2022-10-26T09:34:38.486Z,5.70
2022-10-26T09:37:18.155Z,6.27
2022-10-26T09:39:56.584Z,5.50
2022-10-26T09:42:35.253Z,6.07
2022-10-26T09:45:14.636Z,6.13
2022-10-26T09:47:49.257Z,5.73
2022-10-26T09:50:24.467Z,5.50
2022-10-26T09:52:54.059Z,5.60
2022-10-26T09:55:22.937Z,5.50
2022-10-26T09:57:56.022Z,5.30
2022-10-26T10:00:27.198Z,6.03
2022-10-26T10:02:57.626Z,5.53
2022-10-26T10:05:50.236Z,5.33
2022-10-26T10:08:23.607Z,5.70
2022-10-26T10:11:01.755Z,5.17
2022-10-26T10:13:32.566Z,5.20
2022-10-26T10:16:06.899Z,5.37
2022-10-26T10:18:36.451Z,5.13
2022-10-26T10:21:05.986Z,4.70
2022-10-26T10:23:38.008Z,5.57
2022-10-26T10:26:10.984Z,5.87
2022-10-26T10:28:42.468Z,5.23
2022-10-26T10:31:22.836Z,5.43
2022-10-26T10:33:52.962Z,5.43
2022-10-26T10:36:24.217Z,6.00
2022-10-26T10:38:55.055Z,5.63
2022-10-26T10:41:28.644Z,5.67
2022-10-26T10:44:04.637Z,5.63
2022-10-26T10:46:33.016Z,5.00
2022-10-26T10:49:07.777Z,5.13
2022-10-26T10:51:41.580Z,4.53
2022-10-26T10:54:24.746Z,4.47
2022-10-26T10:56:55.100Z,4.60
2022-10-26T10:59:46.340Z,3.80
2022-10-26T11:03:03.392Z,3.70
2022-10-26T11:06:01.742Z,3.80
2022-10-26T11:08:36.414Z,3.60
2022-10-26T11:11:11.720Z,3.50
2022-10-26T11:13:50.140Z,3.17
2022-10-26T11:16:24.713Z,3.27
2022-10-26T11:18:59.952Z,3.27
2022-10-26T11:21:31.106Z,4.60
2022-10-26T11:24:13.255Z,4.43
2022-10-26T11:26:48.815Z,4.00
2022-10-26T11:29:31.819Z,4.13
2022-10-26T11:32:11.730Z,3.73
2022-10-26T11:34:47.419Z,3.83
2022-10-26T11:37:25.284Z,4.07
2022-10-26T11:40:05.721Z,4.37
2022-10-26T11:42:42.344Z,3.80
2022-10-26T11:45:17.723Z,4.30
2022-10-26T11:47:53.235Z,4.00
2022-10-26T11:50:24.715Z,3.50
2022-10-26T11:52:57.588Z,3.97
2022-10-26T11:55:25.805Z,3.50
2022-10-26T11:57:56.131Z,3.53
2022-10-26T12:00:24.930Z,3.90
2022-10-26T12:02:59.237Z,4.27
2022-10-26T12:05:36.892Z,3.53
2022-10-26T12:08:11.102Z,3.83
2022-10-26T12:10:43.884Z,3.53
2022-10-26T12:13:27.318Z,3.60
2022-10-26T12:16:04.338Z,3.80
2022-10-26T12:18:57.235Z,3.33
2022-10-26T12:21:29.666Z,3.17
2022-10-26T12:24:00.574Z,3.83
2022-10-26T12:26:54.995Z,3.00
2022-10-26T12:29:37.315Z,3.40
2022-10-26T12:32:45.547Z,3.10
2022-10-26T12:35:44.095Z,3.77
2022-10-26T12:38:57.710Z,3.37
2022-10-26T12:41:33.176Z,3.37
2022-10-26T12:44:25.884Z,3.07
2022-10-26T12:46:55.464Z,3.40
2022-10-26T12:49:59.565Z,3.43
2022-10-26T12:52:52.385Z,3.23
2022-10-26T12:55:56.235Z,3.17
2022-10-26T12:59:10.023Z,3.20
2022-10-26T13:02:02.063Z,3.60
2022-10-26T13:05:24.846Z,3.00
2022-10-26T13:07:55.177Z,3.30
2022-10-26T13:10:26.774Z,3.13
2022-10-26T13:12:58.388Z,2.83
2022-10-26T13:15:32.086Z,3.30
2022-10-26T13:18:13.601Z,3.53
2022-10-26T13:21:04.365Z,2.90
2022-10-26T13:23:37.467Z,3.17
2022-10-26T13:26:12.888Z,3.28
2022-10-26T13:28:51.072Z,3.00
2022-10-26T13:31:57.927Z,3.33
2022-10-26T13:34:32.202Z,3.40
2022-10-26T13:37:15.773Z,4.23
2022-10-26T13:39:48.292Z,3.57
2022-10-26T13:42:21.269Z,3.20
2022-10-26T13:44:56.014Z,3.70
2022-10-26T13:47:30.020Z,4.00
2022-10-26T13:50:06.400Z,4.20
2022-10-26T13:52:39.707Z,3.97
2022-10-26T13:55:16.162Z,3.33
2022-10-26T13:57:46.754Z,3.30
2022-10-26T14:00:21.194Z,4.37
2022-10-26T14:02:49.957Z,3.60
2022-10-26T14:05:20.416Z,3.67
2022-10-26T14:07:56.590Z,3.77
2022-10-26T14:10:29.580Z,4.10
2022-10-26T14:12:58.933Z,3.70
2022-10-26T14:15:30.887Z,4.30
2022-10-26T14:18:02.258Z,4.10
2022-10-26T14:20:33.510Z,4.13
2022-10-26T14:23:01.775Z,4.20
2022-10-26T14:25:42.692Z,4.97
2022-10-26T14:28:29.042Z,4.93
2022-10-26T14:31:16.541Z,4.63
2022-10-26T14:33:47.850Z,4.70
2022-10-26T14:36:18.614Z,5.30
2022-10-26T14:38:50.567Z,5.50
2022-10-26T14:41:19.990Z,4.93
2022-10-26T14:43:48.521Z,5.20
2022-10-26T14:46:18.989Z,5.27
2022-10-26T14:48:58.017Z,5.70
2022-10-26T14:51:31.961Z,5.37
2022-10-26T14:54:02.418Z,5.93
2022-10-26T14:56:40.953Z,5.60
2022-10-26T14:59:18.855Z,5.90
2022-10-26T15:01:53.776Z,6.37
2022-10-26T15:04:36.781Z,6.30
2022-10-26T15:07:21.240Z,6.63
2022-10-26T15:09:52.328Z,6.57
2022-10-26T15:12:31.264Z,6.67
2022-10-26T15:15:18.211Z,6.87
2022-10-26T15:17:53.199Z,7.07
2022-10-26T15:20:24.263Z,7.03
2022-10-26T15:22:56.207Z,7.23
2022-10-26T15:25:27.278Z,7.03
2022-10-26T15:27:55.773Z,7.63
2022-10-26T15:30:27.662Z,7.50
2022-10-26T15:32:56.871Z,8.20
2022-10-26T15:35:33.151Z,6.93
2022-10-26T15:38:02.777Z,8.13
2022-10-26T15:40:33.115Z,8.30
2022-10-26T15:43:02.527Z,7.60
2022-10-26T15:45:34.968Z,8.27
2022-10-26T15:48:21.216Z,8.50
2022-10-26T15:50:49.484Z,7.53
2022-10-26T15:53:22.666Z,8.60
2022-10-26T15:55:54.259Z,7.90
2022-10-26T15:58:22.877Z,8.33
2022-10-26T16:00:51.428Z,8.50
2022-10-26T16:03:23.000Z,8.93
2022-10-26T16:05:58.203Z,8.73
2022-10-26T16:08:29.273Z,8.33
2022-10-26T16:10:57.880Z,8.03
2022-10-26T16:13:26.645Z,8.00
2022-10-26T16:15:54.925Z,8.27
2022-10-26T16:18:23.139Z,7.90
2022-10-26T16:20:51.343Z,8.00
2022-10-26T16:23:19.580Z,7.43
2022-10-26T16:25:49.159Z,7.90
2022-10-26T16:28:18.560Z,8.40
2022-10-26T16:30:46.931Z,8.13
2022-10-26T16:33:15.299Z,8.37
2022-10-26T16:35:43.668Z,8.40
2022-10-26T16:38:11.926Z,8.00
2022-10-26T16:40:42.594Z,8.43
2022-10-26T16:43:12.513Z,8.77
2022-10-26T16:45:42.237Z,8.30
2022-10-26T16:48:14.943Z,8.27
2022-10-26T16:50:43.325Z,9.20
2022-10-26T16:53:11.678Z,8.80
2022-10-26T16:55:39.942Z,8.87
2022-10-26T16:58:08.483Z,8.57
2022-10-26T17:00:38.714Z,8.60
2022-10-26T17:03:07.317Z,9.10
2022-10-26T17:05:35.527Z,9.30
2022-10-26T17:08:04.089Z,9.67
2022-10-26T17:10:32.287Z,9.53
2022-10-26T17:13:00.750Z,8.50
2022-10-26T17:15:29.285Z,9.97
2022-10-26T17:17:59.005Z,9.60
2022-10-26T17:20:27.426Z,9.27
2022-10-26T17:22:58.220Z,10.33
2022-10-26T17:25:26.465Z,10.20
2022-10-26T17:27:55.439Z,10.73
2022-10-26T17:30:23.861Z,10.57
2022-10-26T17:32:52.449Z,10.20
2022-10-26T17:35:22.651Z,10.60
2022-10-26T17:37:51.886Z,10.03
2022-10-26T17:40:20.332Z,9.97
2022-10-26T17:42:48.793Z,10.80
2022-10-26T17:45:17.300Z,10.90
2022-10-26T17:47:48.375Z,11.77
2022-10-26T17:50:17.039Z,11.77
2022-10-26T17:52:46.579Z,12.40
2022-10-26T17:55:17.693Z,11.97
2022-10-26T17:57:45.895Z,12.53
2022-10-26T18:00:15.486Z,13.10
2022-10-26T18:02:43.950Z,12.80
2022-10-26T18:05:12.529Z,12.87
2022-10-26T18:07:42.995Z,12.73
2022-10-26T18:10:33.202Z,13.13
2022-10-26T18:13:01.628Z,12.70
2022-10-26T18:15:29.907Z,12.23
2022-10-26T18:17:58.538Z,11.77
2022-10-26T18:20:29.767Z,12.37
2022-10-26T18:22:58.272Z,12.37
2022-10-26T18:25:28.467Z,13.43
2022-10-26T18:27:56.900Z,11.93
2022-10-26T18:30:25.981Z,11.87
2022-10-26T18:32:54.693Z,12.10
2022-10-26T18:35:23.229Z,12.40
2022-10-26T18:37:51.712Z,12.43
2022-10-26T18:40:20.230Z,12.57
2022-10-26T18:42:49.840Z,12.30
2022-10-26T18:45:18.302Z,12.10
2022-10-26T18:47:46.577Z,13.37
2022-10-26T18:50:15.027Z,13.00
2022-10-26T18:52:44.912Z,12.67
2022-10-26T18:55:13.152Z,12.53
2022-10-26T18:57:41.479Z,13.83
2022-10-26T19:00:13.418Z,12.70
2022-10-26T19:02:41.635Z,13.63
2022-10-26T19:05:10.329Z,14.07
2022-10-26T19:07:39.426Z,14.00
2022-10-26T19:10:09.647Z,14.20
2022-10-26T19:12:37.889Z,14.50
2022-10-26T19:15:07.496Z,13.97
2022-10-26T19:17:37.033Z,14.40
2022-10-26T19:20:06.670Z,15.03
2022-10-26T19:22:34.914Z,14.93
2022-10-26T19:25:03.878Z,14.47
2022-10-26T19:27:32.232Z,14.93
2022-10-26T19:30:00.464Z,15.60
2022-10-26T19:32:29.047Z,14.97
2022-10-26T19:34:58.849Z,14.97
2022-10-26T19:37:31.209Z,14.93
2022-10-26T19:39:59.648Z,15.13
2022-10-26T19:42:29.282Z,15.50
2022-10-26T19:44:57.561Z,16.20
2022-10-26T19:47:25.790Z,14.83
2022-10-26T19:49:54.007Z,15.33
2022-10-26T19:52:23.646Z,15.73
2022-10-26T19:54:51.868Z,15.20
2022-10-26T19:57:20.062Z,14.77
2022-10-26T19:59:48.292Z,14.37
2022-10-26T20:02:16.938Z,14.77
2022-10-26T20:04:45.811Z,15.00
2022-10-26T20:07:15.659Z,14.83
2022-10-26T20:09:45.333Z,15.43
2022-10-26T20:12:13.957Z,15.43
2022-10-26T20:14:42.156Z,15.30
2022-10-26T20:17:10.319Z,14.40
2022-10-26T20:19:38.618Z,15.27
2022-10-26T20:22:06.971Z,14.07
2022-10-26T20:24:35.709Z,15.13
2022-10-26T20:27:05.470Z,14.77
2022-10-26T20:29:33.686Z,13.87
2022-10-26T20:32:02.013Z,13.97
2022-10-26T20:34:30.642Z,14.20
2022-10-26T20:36:58.815Z,14.17
2022-10-26T20:39:27.775Z,14.50
2022-10-26T20:41:57.032Z,13.90
2022-10-26T20:44:32.288Z,14.40
2022-10-26T20:47:01.134Z,13.93
2022-10-26T20:49:30.049Z,13.77
2022-10-26T20:52:20.855Z,14.60
2022-10-26T20:54:55.690Z,13.73
2022-10-26T20:57:31.711Z,13.83
2022-10-26T21:00:07.444Z,14.13
2022-10-26T21:02:35.702Z,13.87
2022-10-26T21:05:04.229Z,14.60
2022-10-26T21:07:32.400Z,14.63
2022-10-26T21:10:00.562Z,14.73
2022-10-26T21:12:28.707Z,14.10
2022-10-26T21:14:56.921Z,13.53
2022-10-26T21:17:26.506Z,14.13
2022-10-26T21:19:54.677Z,13.47
2022-10-26T21:22:23.583Z,13.43
2022-10-26T21:24:51.748Z,13.77
2022-10-26T21:27:19.901Z,13.27
2022-10-26T21:29:48.172Z,13.60
2022-10-26T21:32:16.369Z,11.50
2022-10-26T21:34:46.046Z,12.40
2022-10-26T21:37:14.199Z,11.83
2022-10-26T21:39:42.421Z,11.53
2022-10-26T21:42:10.709Z,12.07
2022-10-26T21:44:41.464Z,11.73
2022-10-26T21:47:10.403Z,11.80
2022-10-26T21:49:39.119Z,11.47
2022-10-26T21:52:09.376Z,11.43
2022-10-26T21:54:37.541Z,10.60
2022-10-26T21:57:05.867Z,11.17
2022-10-26T21:59:34.048Z,11.00
2022-10-26T22:02:02.456Z,10.77
2022-10-26T22:04:30.849Z,10.23
2022-10-26T22:06:58.959Z,9.87
2022-10-26T22:09:28.582Z,10.87
2022-10-26T22:11:56.817Z,10.37
2022-10-26T22:14:25.143Z,9.63
2022-10-26T22:16:53.339Z,9.43
2022-10-26T22:19:21.561Z,9.17
2022-10-26T22:21:50.119Z,9.20
2022-10-26T22:24:18.712Z,9.53
2022-10-26T22:26:50.024Z,9.20
2022-10-26T22:29:18.431Z,8.63
2022-10-26T22:31:46.733Z,8.57
2022-10-26T22:34:17.035Z,8.27
2022-10-26T22:36:46.048Z,7.30
2022-10-26T22:39:14.445Z,8.17
2022-10-26T22:41:42.918Z,8.03
2022-10-26T22:44:12.455Z,7.83
2022-10-26T22:46:40.726Z,8.03
2022-10-26T22:49:08.908Z,7.23
2022-10-26T22:51:37.098Z,6.97
2022-10-26T22:54:06.503Z,6.97
2022-10-26T22:56:37.147Z,6.60
2022-10-26T22:59:08.401Z,6.97
2022-10-26T23:01:41.837Z,6.87
2022-10-26T23:04:12.776Z,6.70
2022-10-26T23:06:41.716Z,6.83
2022-10-26T23:09:09.964Z,6.77
2022-10-26T23:11:38.151Z,7.27
2022-10-26T23:14:06.412Z,7.93
2022-10-26T23:16:34.585Z,7.60
2022-10-26T23:19:04.170Z,6.37
2022-10-26T23:21:32.360Z,7.03
2022-10-26T23:24:00.595Z,7.27
2022-10-26T23:26:28.870Z,7.50
2022-10-26T23:28:57.200Z,7.23
2022-10-26T23:31:28.415Z,7.43
2022-10-26T23:33:57.877Z,7.30
2022-10-26T23:36:27.460Z,7.30
2022-10-26T23:38:55.648Z,7.77
2022-10-26T23:41:23.873Z,7.73
2022-10-26T23:43:52.104Z,8.10
2022-10-26T23:46:20.354Z,7.23
2022-10-26T23:48:48.541Z,8.57
2022-10-26T23:51:17.581Z,7.93
2022-10-26T23:53:47.129Z,9.00
2022-10-26T23:56:15.288Z,9.13
2022-10-26T23:58:43.437Z,9.30
